Time;durP1;ratioP1;P1;durP2;ratioP2;P2;SDS_P1;SDS_P2;PMS_P1;PMS_P2;Temp;Humidity;BMP_temperature;BMP_pressure;BME280_temperature;BME280_humidity;BME280_pressure;Samples;Min_cycle;Max_cycle;Signal;HPM_P1;HPM_P2
2022/09/20 00:01:27;;;;;;;0.30;0.20;;;8.60;99.90;;;;;;5114463;28;20462;-82
2022/09/20 00:03:55;;;;;;;0.30;0.30;;;8.70;99.90;;;;;;5114392;28;20512;-82
2022/09/20 00:06:24;;;;;;;0.30;0.30;;;8.70;99.90;;;;;;5114459;28;20204;-82
2022/09/20 00:08:50;;;;;;;3.43;0.40;;;8.70;99.90;;;;;;5114378;28;20446;-82
2022/09/20 00:11:20;;;;;;;0.40;0.40;;;8.70;99.90;;;;;;5114279;28;20816;-82
2022/09/20 00:13:49;;;;;;;0.73;0.40;;;8.70;99.90;;;;;;5114068;28;20822;-82
2022/09/20 00:16:19;;;;;;;0.40;0.30;;;8.70;99.90;;;;;;5114260;28;20789;-82
2022/09/20 00:18:49;;;;;;;0.50;0.50;;;8.70;99.90;;;;;;5115266;28;20462;-82
2022/09/20 00:21:16;;;;;;;2.10;0.40;;;8.70;99.90;;;;;;5114106;28;20451;-82
2022/09/20 00:23:43;;;;;;;0.70;0.30;;;8.70;99.90;;;;;;5113990;28;20459;-82
2022/09/20 00:26:10;;;;;;;0.30;0.20;;;8.70;99.90;;;;;;5114281;28;20447;-82
2022/09/20 00:28:38;;;;;;;0.37;0.30;;;8.60;99.90;;;;;;5113617;28;20479;-82
2022/09/20 00:31:05;;;;;;;0.30;0.20;;;8.60;99.90;;;;;;5114328;28;20443;-82
2022/09/20 00:36:13;;;;;;;0.30;0.30;;;8.60;99.90;;;;;;5112787;28;20431;-82
2022/09/20 00:38:39;;;;;;;0.77;0.40;;;8.50;99.90;;;;;;5113965;28;20443;-82
2022/09/20 00:41:06;;;;;;;0.30;0.30;;;8.50;99.90;;;;;;5113559;28;20438;-82
2022/09/20 00:43:39;;;;;;;0.40;0.30;;;8.50;99.90;;;;;;5113428;28;20463;-82
2022/09/20 00:46:19;;;;;;;0.30;0.25;;;8.40;99.90;;;;;;5113907;28;20454;-82
2022/09/20 00:48:46;;;;;;;0.87;0.27;;;8.40;99.90;;;;;;5113873;28;20208;-82
2022/09/20 00:51:20;;;;;;;0.30;0.30;;;8.50;99.90;;;;;;5113784;28;20443;-82
2022/09/20 00:53:50;;;;;;;0.50;0.43;;;8.50;99.90;;;;;;5113364;28;21055;-82
2022/09/20 00:56:22;;;;;;;0.30;0.30;;;8.50;99.90;;;;;;5113831;28;20447;-82
2022/09/20 00:58:58;;;;;;;0.30;0.20;;;8.50;99.90;;;;;;5118059;28;20435;-75
2022/09/20 01:01:25;;;;;;;1.67;0.60;;;8.40;99.90;;;;;;5118039;28;20242;-75
2022/09/20 01:03:53;;;;;;;0.50;0.40;;;8.50;99.90;;;;;;5117545;28;20462;-75
2022/09/20 01:06:19;;;;;;;0.30;0.30;;;8.40;99.90;;;;;;5117860;28;20469;-75
2022/09/20 01:08:51;;;;;;;0.30;0.30;;;8.50;99.90;;;;;;5117505;28;20956;-75
2022/09/20 01:11:18;;;;;;;1.07;0.40;;;8.50;99.90;;;;;;5117803;28;20431;-75
2022/09/20 01:13:45;;;;;;;0.50;0.43;;;8.50;99.90;;;;;;5117808;28;20479;-75
2022/09/20 01:16:16;;;;;;;1.03;0.93;;;8.50;99.90;;;;;;5117680;28;20819;-75
2022/09/20 01:18:44;;;;;;;0.50;0.40;;;8.40;99.90;;;;;;5117395;28;20905;-75
2022/09/20 01:21:13;;;;;;;0.40;0.40;;;8.40;99.90;;;;;;5117581;28;20443;-75
2022/09/20 01:23:56;;;;;;;0.30;0.30;;;8.40;99.90;;;;;;5117440;28;20458;-75
2022/09/20 01:26:48;;;;;;;0.40;0.30;;;8.40;99.90;;;;;;5117370;28;20431;-75
2022/09/20 01:29:36;;;;;;;0.30;0.20;;;8.30;99.90;;;;;;5117692;28;20431;-75
2022/09/20 01:32:09;;;;;;;0.40;0.37;;;8.30;99.90;;;;;;5117421;28;20423;-75
2022/09/20 01:34:38;;;;;;;0.40;0.40;;;8.40;99.90;;;;;;5117217;28;20478;-75
2022/09/20 01:37:12;;;;;;;0.40;0.30;;;8.30;99.90;;;;;;5117249;28;20447;-75
2022/09/20 01:39:47;;;;;;;0.30;0.30;;;8.30;99.90;;;;;;5117290;28;20433;-75
2022/09/20 01:42:14;;;;;;;0.40;0.37;;;8.30;99.90;;;;;;5116905;28;20438;-75
2022/09/20 01:44:55;;;;;;;0.50;0.30;;;8.30;99.90;;;;;;5117266;28;20466;-75
2022/09/20 01:47:31;;;;;;;0.30;0.20;;;8.40;99.90;;;;;;5117105;28;20439;-75
2022/09/20 01:50:08;;;;;;;0.30;0.30;;;8.40;99.90;;;;;;5116772;28;20994;-75
2022/09/20 01:53:11;;;;;;;0.40;0.40;;;8.40;99.90;;;;;;5117189;28;20917;-75
2022/09/20 01:56:08;;;;;;;0.30;0.30;;;8.40;99.90;;;;;;5116594;28;20968;-75
2022/09/20 01:59:08;;;;;;;0.30;0.30;;;8.40;99.90;;;;;;5109622;28;20446;-75
2022/09/20 02:02:04;;;;;;;0.30;0.20;;;8.40;99.90;;;;;;5116836;28;20436;-75
2022/09/20 02:04:56;;;;;;;0.33;0.30;;;8.40;99.90;;;;;;5116690;28;20455;-75
2022/09/20 02:07:53;;;;;;;0.30;0.30;;;8.40;99.90;;;;;;5116724;28;20980;-75
2022/09/20 02:10:45;;;;;;;0.50;0.30;;;8.30;99.90;;;;;;5084652;28;20442;-75
2022/09/20 02:13:27;;;;;;;0.30;0.20;;;8.30;99.90;;;;;;5116505;28;20473;-75
2022/09/20 02:16:21;;;;;;;0.40;0.30;;;8.20;99.90;;;;;;5116336;28;20463;-75
2022/09/20 02:19:05;;;;;;;1.13;0.40;;;8.20;99.90;;;;;;5108398;28;20443;-75
2022/09/20 02:21:38;;;;;;;0.37;0.30;;;8.20;99.90;;;;;;5116458;28;20424;-75
2022/09/20 02:24:21;;;;;;;0.30;0.30;;;8.20;99.90;;;;;;5116375;28;20512;-75
2022/09/20 02:26:58;;;;;;;0.40;0.30;;;8.20;99.90;;;;;;5116096;28;20474;-75
2022/09/20 02:29:33;;;;;;;0.30;0.30;;;8.20;99.90;;;;;;5116328;28;20423;-75
2022/09/20 02:32:13;;;;;;;0.40;0.33;;;8.20;99.90;;;;;;5116266;28;20430;-75
2022/09/20 02:35:03;;;;;;;0.40;0.40;;;8.20;99.90;;;;;;5116065;28;20513;-75
2022/09/20 02:37:53;;;;;;;0.70;0.50;;;8.20;99.90;;;;;;5116178;28;20186;-75
2022/09/20 02:40:46;;;;;;;0.50;0.30;;;8.20;99.90;;;;;;5116101;28;20430;-76
2022/09/20 02:43:21;;;;;;;0.40;0.33;;;8.20;99.90;;;;;;5110725;28;20475;-75
2022/09/20 02:45:57;;;;;;;0.40;0.30;;;8.20;99.90;;;;;;5116005;28;20445;-75
2022/09/20 02:48:34;;;;;;;0.30;0.30;;;8.20;99.90;;;;;;5115675;28;20894;-74
2022/09/20 02:51:08;;;;;;;0.40;0.30;;;8.20;99.90;;;;;;5115564;28;20925;-74
2022/09/20 02:53:43;;;;;;;0.30;0.30;;;8.20;99.90;;;;;;5115941;28;20463;-75
2022/09/20 02:56:20;;;;;;;1.13;0.40;;;8.20;99.90;;;;;;5115829;28;20184;-75
2022/09/20 02:58:55;;;;;;;0.30;0.30;;;8.10;99.90;;;;;;5116008;28;20427;-75
2022/09/20 03:01:43;;;;;;;0.30;0.30;;;8.10;99.90;;;;;;5115701;28;20427;-75
2022/09/20 03:04:25;;;;;;;0.30;0.20;;;8.10;99.90;;;;;;5115548;28;20467;-75
2022/09/20 03:07:01;;;;;;;0.30;0.30;;;8.10;99.90;;;;;;5115551;28;20493;-75
2022/09/20 03:09:34;;;;;;;0.40;0.33;;;8.10;99.90;;;;;;5115519;28;20431;-75
2022/09/20 03:12:11;;;;;;;0.40;0.40;;;8.00;99.90;;;;;;5115526;28;20432;-75
2022/09/20 03:14:44;;;;;;;0.57;0.38;;;8.00;99.90;;;;;;5115289;28;20482;-75
2022/09/20 03:17:22;;;;;;;0.30;0.30;;;8.00;99.90;;;;;;5115496;28;20193;-75
2022/09/20 03:20:08;;;;;;;0.40;0.30;;;8.00;99.90;;;;;;5114979;28;20435;-75
2022/09/20 03:22:51;;;;;;;0.40;0.30;;;8.00;99.90;;;;;;5115186;28;20442;-75
2022/09/20 03:25:50;;;;;;;0.40;0.40;;;8.00;99.90;;;;;;5115229;28;20431;-75
2022/09/20 03:28:44;;;;;;;0.30;0.20;;;8.00;99.90;;;;;;5110520;28;20479;-75
2022/09/20 03:31:24;;;;;;;0.40;0.40;;;8.10;99.90;;;;;;5111452;28;20497;-74
2022/09/20 03:34:04;;;;;;;0.30;0.30;;;8.20;99.90;;;;;;5114883;28;20489;-75
2022/09/20 03:36:45;;;;;;;0.30;0.30;;;8.20;99.90;;;;;;5114997;28;20430;-74
2022/09/20 03:39:31;;;;;;;0.30;0.30;;;8.20;99.90;;;;;;5114620;28;20907;-75
2022/09/20 03:42:15;;;;;;;0.30;0.30;;;8.20;99.90;;;;;;5114930;28;20434;-75
2022/09/20 03:45:05;;;;;;;0.37;0.37;;;8.20;99.90;;;;;;5114434;28;20974;-74
2022/09/20 03:47:50;;;;;;;0.70;0.50;;;8.20;99.90;;;;;;5112126;28;20459;-75
2022/09/20 03:50:35;;;;;;;0.50;0.30;;;8.30;99.90;;;;;;5114408;28;20431;-74
2022/09/20 03:53:39;;;;;;;0.40;0.37;;;8.30;99.90;;;;;;5114577;28;20470;-75
2022/09/20 03:56:26;;;;;;;0.30;0.30;;;8.30;99.90;;;;;;5114343;28;20518;-75
2022/09/20 03:59:10;;;;;;;0.37;0.33;;;8.30;99.90;;;;;;5114627;28;20781;-75
2022/09/20 04:01:53;;;;;;;0.30;0.30;;;8.30;99.90;;;;;;5114234;28;20832;-74
2022/09/20 04:04:25;;;;;;;0.50;0.40;;;8.40;99.90;;;;;;5114595;28;20459;-75
2022/09/20 04:07:05;;;;;;;0.60;0.37;;;8.40;99.90;;;;;;5114412;28;20419;-75
2022/09/20 04:09:51;;;;;;;0.30;0.20;;;8.40;99.90;;;;;;5114381;28;20442;-75
2022/09/20 04:12:30;;;;;;;5.20;0.60;;;8.40;99.90;;;;;;5114054;28;20899;-75
2022/09/20 04:15:07;;;;;;;0.40;0.30;;;8.50;99.90;;;;;;5114507;28;20470;-75
2022/09/20 04:17:45;;;;;;;0.30;0.30;;;8.50;99.90;;;;;;5114292;28;20843;-74
2022/09/20 04:20:19;;;;;;;0.73;0.30;;;8.50;99.90;;;;;;5114230;28;20438;-75
2022/09/20 04:22:50;;;;;;;0.30;0.20;;;8.50;99.90;;;;;;5114159;28;20467;-75
2022/09/20 04:25:20;;;;;;;0.50;0.50;;;8.50;99.90;;;;;;5114138;28;20430;-75
2022/09/20 04:27:52;;;;;;;0.30;0.30;;;8.50;99.90;;;;;;5113702;28;20490;-75
2022/09/20 04:30:21;;;;;;;0.50;0.50;;;8.50;99.90;;;;;;5114057;28;20442;-75
2022/09/20 04:32:55;;;;;;;0.30;0.30;;;8.60;99.90;;;;;;5113358;28;20474;-75
2022/09/20 04:38:21;;;;;;;0.50;0.30;;;8.60;99.90;;;;;;5114330;28;20430;-75
2022/09/20 04:41:07;;;;;;;0.40;0.30;;;8.60;99.90;;;;;;5113868;28;20885;-75
2022/09/20 04:44:20;;;;;;;0.40;0.30;;;8.60;99.90;;;;;;5114090;28;20471;-75
2022/09/20 04:47:14;;;;;;;0.30;0.20;;;8.60;99.90;;;;;;5113533;28;20957;-75
2022/09/20 04:50:14;;;;;;;0.30;0.30;;;8.70;99.90;;;;;;5079844;28;20577;-75
2022/09/20 04:53:21;;;;;;;0.30;0.20;;;8.70;99.90;;;;;;5113661;28;20454;-75
2022/09/20 04:55:54;;;;;;;0.40;0.30;;;8.70;99.90;;;;;;5113691;28;20220;-75
2022/09/20 04:58:38;;;;;;;0.30;0.30;;;8.70;99.90;;;;;;5113739;28;20450;-75
2022/09/20 05:01:56;;;;;;;0.40;0.30;;;8.70;99.90;;;;;;5113768;28;20419;-75
2022/09/20 05:05:02;;;;;;;0.77;0.30;;;8.70;99.90;;;;;;5050757;28;20462;-75
2022/09/20 05:08:01;;;;;;;0.30;0.30;;;8.70;99.90;;;;;;5113321;28;20848;-75
2022/09/20 05:10:48;;;;;;;0.43;0.33;;;8.60;99.90;;;;;;5113633;28;20435;-76
2022/09/20 05:13:29;;;;;;;0.37;0.30;;;8.60;99.90;;;;;;5113488;28;20466;-76
2022/09/20 05:16:02;;;;;;;0.77;0.60;;;8.60;99.90;;;;;;5113492;28;20467;-76
2022/09/20 05:19:06;;;;;;;0.50;0.50;;;8.50;99.90;;;;;;5113571;28;20427;-76
2022/09/20 05:21:53;;;;;;;0.40;0.30;;;8.50;99.90;;;;;;5113165;28;20808;-75
2022/09/20 05:24:33;;;;;;;0.30;0.30;;;8.50;99.90;;;;;;5113701;28;20553;-75
2022/09/20 05:27:18;;;;;;;6.50;0.60;;;8.40;99.90;;;;;;5113190;28;20483;-75
2022/09/20 05:29:51;;;;;;;0.40;0.30;;;8.40;99.90;;;;;;5113487;28;20427;-75
2022/09/20 05:32:23;;;;;;;0.40;0.30;;;8.50;99.90;;;;;;5113388;28;20488;-75
2022/09/20 05:34:56;;;;;;;0.60;0.40;;;8.50;99.90;;;;;;5113241;28;20506;-75
2022/09/20 05:37:35;;;;;;;0.30;0.30;;;8.50;99.90;;;;;;5113091;28;20438;-76
2022/09/20 05:40:15;;;;;;;1.87;1.00;;;8.50;99.90;;;;;;5113025;28;20807;-75
2022/09/20 05:42:50;;;;;;;0.57;0.50;;;8.50;99.90;;;;;;5113989;28;20431;-75
2022/09/20 05:45:32;;;;;;;0.70;0.40;;;8.50;99.90;;;;;;5117215;28;20499;-75
2022/09/20 05:48:10;;;;;;;0.33;0.30;;;8.50;99.90;;;;;;5117154;28;20430;-75
2022/09/20 05:50:45;;;;;;;0.33;0.30;;;8.40;99.90;;;;;;5117634;28;20438;-76
2022/09/20 05:53:50;;;;;;;0.30;0.20;;;8.40;99.90;;;;;;5116959;28;20473;-76
2022/09/20 05:56:29;;;;;;;0.37;0.37;;;8.50;99.90;;;;;;5116568;28;20518;-76
2022/09/20 05:59:10;;;;;;;0.47;0.40;;;8.60;99.90;;;;;;5116934;28;20794;-75
2022/09/20 06:01:41;;;;;;;0.70;0.50;;;8.60;99.90;;;;;;5116863;28;20426;-75
2022/09/20 06:04:16;;;;;;;0.53;0.40;;;8.70;99.90;;;;;;5116747;28;20462;-75
2022/09/20 06:06:55;;;;;;;0.40;0.30;;;8.70;99.90;;;;;;5116813;28;20526;-75
2022/09/20 06:09:43;;;;;;;0.50;0.50;;;8.90;99.90;;;;;;5116784;28;20836;-75
2022/09/20 06:12:39;;;;;;;1.00;0.90;;;8.90;99.90;;;;;;5116373;28;20423;-76
2022/09/20 06:15:18;;;;;;;0.40;0.40;;;9.00;99.90;;;;;;5116587;28;20541;-75
2022/09/20 06:17:53;;;;;;;1.27;1.17;;;9.10;99.90;;;;;;5116298;28;20432;-75
2022/09/20 06:20:28;;;;;;;0.40;0.37;;;9.10;99.90;;;;;;5116515;28;20454;-75
2022/09/20 06:22:58;;;;;;;0.40;0.40;;;9.10;99.90;;;;;;5116941;28;20462;-75
2022/09/20 06:25:30;;;;;;;0.40;0.30;;;9.10;99.90;;;;;;5116106;28;20193;-75
2022/09/20 06:28:05;;;;;;;3.67;1.20;;;9.20;99.90;;;;;;5116283;28;20530;-75
2022/09/20 06:30:35;;;;;;;0.30;0.30;;;9.20;99.90;;;;;;5116299;28;20431;-75
2022/09/20 06:33:13;;;;;;;0.40;0.40;;;9.30;99.90;;;;;;5116174;28;20459;-75
2022/09/20 06:35:45;;;;;;;0.63;0.63;;;9.40;99.90;;;;;;5116153;28;20462;-75
2022/09/20 06:41:27;;;;;;;0.40;0.30;;;9.50;99.90;;;;;;5071456;28;20415;-75
2022/09/20 06:43:56;;;;;;;0.30;0.30;;;9.60;99.90;;;;;;5116002;28;20508;-75
2022/09/20 06:46:23;;;;;;;1.13;0.53;;;9.60;99.90;;;;;;5115973;28;20439;-75
2022/09/20 06:48:50;;;;;;;0.30;0.30;;;9.60;99.90;;;;;;5115930;28;20435;-75
2022/09/20 06:51:16;;;;;;;0.50;0.50;;;9.70;99.90;;;;;;5115894;28;20778;-75
2022/09/20 06:53:43;;;;;;;0.40;0.40;;;9.80;99.90;;;;;;5115711;28;20804;-75
2022/09/20 06:56:16;;;;;;;3.30;0.70;;;9.80;99.90;;;;;;5115118;28;20479;-75
2022/09/20 06:58:43;;;;;;;0.53;0.50;;;9.90;99.90;;;;;;5115776;28;20497;-75
2022/09/20 07:01:12;;;;;;;0.50;0.50;;;10.00;99.90;;;;;;5115658;28;20451;-75
2022/09/20 07:03:39;;;;;;;0.40;0.40;;;10.00;99.90;;;;;;5115595;28;20556;-75
2022/09/20 07:06:06;;;;;;;0.50;0.40;;;10.10;99.90;;;;;;5115282;28;20450;-75
2022/09/20 07:08:33;;;;;;;0.40;0.40;;;10.10;99.90;;;;;;5115512;28;20534;-75
2022/09/20 07:11:03;;;;;;;0.40;0.30;;;10.10;99.90;;;;;;5115709;28;20517;-75
2022/09/20 07:13:30;;;;;;;1.47;0.40;;;10.10;99.90;;;;;;5115356;28;20470;-75
2022/09/20 07:16:01;;;;;;;0.47;0.37;;;10.10;99.90;;;;;;5115339;28;20483;-75
2022/09/20 07:18:30;;;;;;;0.70;0.30;;;10.10;99.90;;;;;;5115111;28;20431;-75
2022/09/20 07:20:57;;;;;;;4.93;0.77;;;10.10;99.90;;;;;;5115323;28;20496;-75
2022/09/20 07:23:24;;;;;;;0.80;0.80;;;10.10;99.90;;;;;;5115571;28;20473;-75
2022/09/20 07:25:51;;;;;;;0.40;0.40;;;10.10;99.90;;;;;;5115180;28;20439;-75
2022/09/20 07:28:19;;;;;;;0.83;0.50;;;10.10;99.90;;;;;;5114776;28;20536;-75
2022/09/20 07:30:46;;;;;;;2.30;0.77;;;10.10;99.90;;;;;;5114789;28;21044;-75
2022/09/20 07:33:18;;;;;;;0.40;0.37;;;10.20;99.90;;;;;;5114952;28;20463;-75
2022/09/20 07:35:46;;;;;;;1.03;0.63;;;10.30;99.90;;;;;;5114930;28;20557;-75
2022/09/20 07:38:13;;;;;;;0.87;0.50;;;10.30;99.90;;;;;;5114873;28;20447;-75
2022/09/20 07:40:39;;;;;;;0.83;0.40;;;10.40;99.90;;;;;;5114874;28;20458;-75
2022/09/20 07:43:06;;;;;;;0.80;0.53;;;10.50;99.90;;;;;;5114901;28;20825;-75
2022/09/20 07:45:34;;;;;;;0.50;0.50;;;10.60;99.90;;;;;;5114757;28;20966;-75
2022/09/20 07:48:04;;;;;;;0.60;0.60;;;10.70;99.90;;;;;;5114845;28;20458;-75
2022/09/20 07:50:31;;;;;;;0.40;0.40;;;10.80;99.90;;;;;;5114923;28;20446;-75
2022/09/20 07:52:59;;;;;;;2.73;0.40;;;11.00;99.90;;;;;;5114305;28;21057;-76
2022/09/20 07:55:26;;;;;;;0.40;0.37;;;11.20;99.90;;;;;;5114543;28;20524;-76
2022/09/20 07:57:53;;;;;;;0.73;0.60;;;11.60;99.90;;;;;;5114622;28;20822;-76
2022/09/20 08:00:20;;;;;;;0.50;0.30;;;11.70;99.90;;;;;;5114514;28;20455;-76
2022/09/20 08:02:47;;;;;;;2.67;0.43;;;11.70;99.90;;;;;;5114420;28;20462;-76
2022/09/20 08:05:14;;;;;;;2.13;0.60;;;11.70;99.90;;;;;;5114429;28;20204;-76
2022/09/20 08:07:41;;;;;;;5.85;0.50;;;11.60;99.90;;;;;;5113568;28;20447;-76
2022/09/20 08:10:10;;;;;;;0.60;0.30;;;11.60;99.90;;;;;;5114217;28;20185;-76
2022/09/20 08:12:36;;;;;;;0.60;0.33;;;11.60;99.90;;;;;;5114236;28;20451;-76
2022/09/20 08:15:04;;;;;;;0.93;0.50;;;11.60;99.90;;;;;;5114226;28;20496;-76
2022/09/20 08:17:31;;;;;;;0.50;0.40;;;11.70;99.90;;;;;;5114225;28;20205;-76
2022/09/20 08:19:58;;;;;;;0.40;0.40;;;11.80;99.90;;;;;;5113952;28;20938;-76
2022/09/20 08:22:25;;;;;;;0.43;0.43;;;11.90;99.90;;;;;;5114177;28;20205;-76
2022/09/20 08:24:51;;;;;;;0.30;0.30;;;11.90;99.90;;;;;;5114121;28;20451;-76
2022/09/20 08:27:19;;;;;;;2.70;1.23;;;11.80;99.90;;;;;;5113734;28;20535;-76
2022/09/20 08:29:46;;;;;;;0.40;0.40;;;11.80;99.90;;;;;;5114044;28;20450;-76
2022/09/20 08:32:13;;;;;;;0.40;0.30;;;11.70;99.90;;;;;;5114006;28;20809;-75
2022/09/20 08:34:40;;;;;;;0.40;0.40;;;11.70;99.90;;;;;;5114154;28;20232;-76
2022/09/20 08:37:06;;;;;;;0.93;0.50;;;11.70;99.90;;;;;;5113555;28;21001;-76
2022/09/20 08:39:33;;;;;;;0.40;0.30;;;11.80;99.90;;;;;;5113971;28;20423;-76
2022/09/20 08:42:11;;;;;;;0.50;0.40;;;12.00;99.90;;;;;;5113975;28;20818;-76
2022/09/20 08:44:49;;;;;;;0.50;0.50;;;12.30;99.90;;;;;;5114133;28;20471;-76
2022/09/20 08:47:21;;;;;;;0.40;0.40;;;12.70;99.90;;;;;;5113577;28;20427;-76
2022/09/20 08:49:48;;;;;;;0.60;0.40;;;12.80;99.90;;;;;;5113894;28;20431;-76
2022/09/20 08:52:18;;;;;;;0.50;0.30;;;12.90;99.90;;;;;;5114060;28;20449;-76
2022/09/20 08:54:46;;;;;;;0.73;0.73;;;13.00;99.90;;;;;;5113693;28;20466;-76
2022/09/20 08:57:16;;;;;;;0.50;0.50;;;13.00;99.90;;;;;;5113641;28;20565;-76
2022/09/20 08:59:44;;;;;;;0.80;0.40;;;13.20;99.90;;;;;;5113412;28;20957;-76
2022/09/20 09:02:16;;;;;;;8.90;0.60;;;13.50;99.90;;;;;;5113340;28;20836;-76
2022/09/20 09:04:44;;;;;;;0.40;0.40;;;13.90;99.90;;;;;;5113403;28;20454;-76
2022/09/20 09:07:14;;;;;;;0.73;0.47;;;14.40;99.90;;;;;;5114503;28;20471;-76
2022/09/20 09:09:43;;;;;;;0.60;0.40;;;14.50;99.90;;;;;;5113319;28;20455;-76
2022/09/20 09:12:18;;;;;;;1.13;0.63;;;14.70;99.90;;;;;;5113248;28;21000;-76
2022/09/20 09:14:51;;;;;;;0.50;0.40;;;14.80;99.90;;;;;;5113567;28;20463;-76
2022/09/20 09:17:20;;;;;;;0.77;0.40;;;14.80;99.90;;;;;;5113594;28;20992;-76
2022/09/20 09:19:49;;;;;;;0.40;0.30;;;14.90;99.90;;;;;;5117700;28;20813;-76
2022/09/20 09:22:23;;;;;;;0.50;0.50;;;15.00;99.90;;;;;;5117547;28;20451;-76
2022/09/20 09:25:22;;;;;;;0.33;0.30;;;15.00;99.90;;;;;;5117523;28;20549;-76
2022/09/20 09:27:54;;;;;;;0.40;0.30;;;14.80;99.90;;;;;;5117154;28;20475;-78
2022/09/20 09:30:26;;;;;;;0.30;0.30;;;14.60;99.90;;;;;;5117454;28;20443;-76
2022/09/20 09:32:53;;;;;;;0.80;0.40;;;14.50;99.90;;;;;;5117381;28;20475;-76
2022/09/20 09:35:29;;;;;;;0.40;0.30;;;14.30;99.90;;;;;;5117519;28;20446;-76
2022/09/20 09:37:58;;;;;;;0.97;0.43;;;14.20;99.90;;;;;;5117357;28;20480;-76
2022/09/20 09:40:26;;;;;;;0.40;0.30;;;14.10;99.90;;;;;;5117257;28;20453;-76
2022/09/20 09:42:55;;;;;;;0.47;0.30;;;13.90;99.90;;;;;;5116748;28;20997;-76
2022/09/20 09:45:29;;;;;;;1.97;0.43;;;13.70;99.90;;;;;;5117162;28;20818;-76
2022/09/20 09:47:58;;;;;;;0.30;0.30;;;13.60;99.90;;;;;;5117179;28;20430;-76
2022/09/20 09:50:29;;;;;;;0.50;0.40;;;13.50;99.90;;;;;;5117026;28;20500;-76
2022/09/20 09:53:01;;;;;;;0.50;0.30;;;13.50;99.90;;;;;;5117251;28;20478;-76
2022/09/20 09:55:53;;;;;;;0.40;0.30;;;13.50;99.90;;;;;;5116973;28;20806;-76
2022/09/20 09:58:35;;;;;;;1.47;0.40;;;13.40;99.90;;;;;;5116918;28;20447;-76
2022/09/20 10:01:06;;;;;;;0.40;0.30;;;13.30;99.90;;;;;;5116941;28;20442;-76
2022/09/20 10:03:49;;;;;;;1.90;0.50;;;13.20;99.90;;;;;;5116497;28;20221;-76
2022/09/20 10:06:26;;;;;;;0.30;0.20;;;13.50;99.90;;;;;;5116837;28;20423;-76
2022/09/20 10:09:10;;;;;;;0.70;0.43;;;13.80;99.90;;;;;;5116753;28;20450;-76
2022/09/20 10:11:48;;;;;;;0.50;0.30;;;14.10;99.90;;;;;;5116713;28;20446;-76
2022/09/20 10:14:30;;;;;;;0.43;0.43;;;14.30;99.90;;;;;;5116568;28;20466;-76
2022/09/20 10:17:18;;;;;;;0.50;0.40;;;14.30;99.90;;;;;;5116499;28;20474;-76
2022/09/20 10:20:02;;;;;;;0.60;0.40;;;14.20;99.90;;;;;;5116206;28;20427;-76
2022/09/20 10:22:37;;;;;;;0.30;0.30;;;14.00;99.90;;;;;;5116447;28;20438;-76
2022/09/20 10:25:16;;;;;;;0.40;0.40;;;13.90;99.90;;;;;;5116456;28;20419;-76
2022/09/20 10:27:57;;;;;;;0.30;0.30;;;13.90;99.90;;;;;;5116156;28;20558;-76
2022/09/20 10:30:30;;;;;;;0.30;0.30;;;14.10;99.90;;;;;;5115375;28;20780;-76
2022/09/20 10:33:09;;;;;;;0.40;0.33;;;14.50;99.90;;;;;;5116198;28;20478;-76
2022/09/20 10:35:51;;;;;;;6.40;0.40;;;14.80;99.90;;;;;;5117034;28;20431;-75
2022/09/20 10:38:24;;;;;;;1.37;0.60;;;14.70;99.90;;;;;;5116215;28;20437;-75
2022/09/20 10:44:05;;;;;;;1.00;0.60;;;14.40;99.90;;;;;;5116198;28;20430;-76
2022/09/20 10:46:45;;;;;;;0.40;0.30;;;14.30;99.90;;;;;;5116024;28;20768;-75
2022/09/20 10:49:23;;;;;;;0.40;0.40;;;14.20;99.90;;;;;;5116138;28;20428;-75
2022/09/20 10:52:02;;;;;;;0.40;0.30;;;14.20;99.90;;;;;;5116021;28;20182;-75
2022/09/20 10:54:38;;;;;;;0.80;0.50;;;14.20;99.90;;;;;;5115815;28;20221;-75
2022/09/20 10:57:21;;;;;;;0.40;0.40;;;14.30;99.90;;;;;;5115758;28;20466;-75
2022/09/20 10:59:55;;;;;;;0.40;0.30;;;14.30;99.90;;;;;;5115499;28;20574;-75
2022/09/20 11:02:45;;;;;;;0.30;0.30;;;14.40;99.90;;;;;;5115708;28;20439;-75
2022/09/20 11:05:25;;;;;;;0.60;0.50;;;14.40;99.90;;;;;;5115690;28;20454;-75
2022/09/20 11:08:00;;;;;;;0.30;0.30;;;14.30;99.90;;;;;;5115609;28;20424;-75
2022/09/20 11:10:32;;;;;;;0.43;0.40;;;14.20;99.90;;;;;;5115568;28;20779;-75
2022/09/20 11:13:01;;;;;;;0.77;0.30;;;13.90;99.90;;;;;;5115588;28;20536;-75
2022/09/20 11:15:34;;;;;;;1.87;0.60;;;13.80;99.90;;;;;;5115141;28;20446;-75
2022/09/20 11:18:09;;;;;;;0.77;0.50;;;13.70;99.90;;;;;;5115340;28;20467;-75
2022/09/20 11:20:43;;;;;;;0.87;0.43;;;13.70;99.90;;;;;;5115367;28;20427;-75
2022/09/20 11:23:14;;;;;;;0.30;0.30;;;13.70;99.90;;;;;;5115253;28;20466;-75
2022/09/20 11:25:45;;;;;;;0.60;0.37;;;13.80;99.90;;;;;;5115231;28;20431;-75
2022/09/20 11:28:19;;;;;;;0.50;0.50;;;13.80;99.90;;;;;;5114960;28;20985;-76
2022/09/20 11:30:55;;;;;;;1.13;0.45;;;13.80;99.90;;;;;;5114856;28;20932;-75
2022/09/20 11:33:26;;;;;;;0.40;0.30;;;13.80;99.90;;;;;;5115057;28;20229;-76
2022/09/20 11:35:58;;;;;;;0.40;0.30;;;13.80;99.90;;;;;;5115059;28;20204;-75
2022/09/20 11:38:32;;;;;;;0.93;0.43;;;14.10;99.90;;;;;;5115064;28;20411;-76
2022/09/20 11:41:04;;;;;;;0.40;0.30;;;14.50;99.90;;;;;;5114898;28;20431;-76
2022/09/20 11:43:32;;;;;;;1.63;0.50;;;14.90;99.90;;;;;;5114879;28;20458;-76
2022/09/20 11:46:02;;;;;;;0.40;0.30;;;15.00;99.90;;;;;;5114827;28;20447;-75
2022/09/20 11:48:33;;;;;;;0.40;0.30;;;15.10;99.90;;;;;;5114829;28;20203;-75
2022/09/20 11:51:30;;;;;;;0.40;0.30;;;15.10;99.90;;;;;;5114829;28;20434;-75
2022/09/20 11:54:20;;;;;;;0.52;0.40;;;14.90;99.90;;;;;;5114679;28;20566;-75
2022/09/20 11:56:51;;;;;;;0.30;0.30;;;15.00;99.90;;;;;;5112269;28;20220;-75
2022/09/20 11:59:28;;;;;;;0.40;0.40;;;14.90;99.90;;;;;;5114616;28;20427;-75
2022/09/20 12:01:58;;;;;;;1.10;0.50;;;14.90;99.90;;;;;;5114573;28;20435;-75
2022/09/20 12:04:28;;;;;;;0.40;0.40;;;14.80;99.90;;;;;;5114468;28;20652;-75
2022/09/20 12:07:03;;;;;;;0.97;0.70;;;14.70;99.90;;;;;;5114491;28;20439;-75
2022/09/20 12:09:33;;;;;;;0.47;0.40;;;14.50;99.90;;;;;;5114503;28;20480;-75
2022/09/20 12:12:15;;;;;;;0.60;0.40;;;14.30;99.90;;;;;;5114394;28;20435;-75
2022/09/20 12:14:52;;;;;;;0.40;0.40;;;14.10;99.90;;;;;;5114392;28;20562;-75
2022/09/20 12:17:52;;;;;;;1.03;0.50;;;14.20;99.90;;;;;;5114433;28;20463;-75
2022/09/20 12:21:02;;;;;;;0.30;0.30;;;14.30;99.90;;;;;;5113828;28;20446;-75
2022/09/20 12:24:17;;;;;;;1.63;0.40;;;14.30;99.90;;;;;;5051153;28;20478;-75
2022/09/20 12:26:49;;;;;;;0.80;0.40;;;14.40;99.90;;;;;;5050984;28;21012;-75
2022/09/20 12:29:49;;;;;;;0.40;0.40;;;14.60;99.90;;;;;;5105683;28;20451;-75
2022/09/20 12:32:33;;;;;;;0.75;0.40;;;14.60;99.90;;;;;;5114128;28;20462;-75
2022/09/20 12:35:00;;;;;;;0.50;0.40;;;14.50;99.90;;;;;;5114099;28;20537;-75
2022/09/20 12:37:29;;;;;;;1.30;0.37;;;14.50;99.90;;;;;;5113940;28;20478;-75
2022/09/20 12:39:57;;;;;;;0.60;0.40;;;14.50;99.90;;;;;;5113924;28;20447;-75
2022/09/20 12:42:29;;;;;;;0.40;0.40;;;14.60;99.90;;;;;;5113936;28;20454;-75
2022/09/20 12:45:01;;;;;;;0.50;0.43;;;14.70;99.90;;;;;;5113952;28;20434;-75
2022/09/20 12:47:30;;;;;;;1.13;0.50;;;14.70;99.90;;;;;;5113823;28;20466;-75
2022/09/20 12:53:03;;;;;;;0.40;0.30;;;14.60;99.90;;;;;;5113340;28;20399;-75
2022/09/20 12:55:39;;;;;;;0.43;0.30;;;14.40;99.90;;;;;;5113484;28;20476;-75
2022/09/20 12:58:19;;;;;;;0.80;0.63;;;14.30;99.90;;;;;;5113792;28;20244;-75
2022/09/20 13:00:49;;;;;;;0.40;0.40;;;14.20;99.90;;;;;;5113814;28;20423;-78
2022/09/20 13:03:28;;;;;;;0.30;0.30;;;14.20;99.90;;;;;;5113640;28;20521;-78
2022/09/20 13:06:24;;;;;;;0.47;0.30;;;14.10;99.90;;;;;;5113675;28;20446;-78
2022/09/20 13:08:56;;;;;;;0.40;0.30;;;13.90;99.90;;;;;;5113648;28;20204;-78
2022/09/20 13:11:28;;;;;;;6.03;0.73;;;13.80;99.90;;;;;;5113698;28;20518;-78
2022/09/20 13:13:57;;;;;;;0.30;0.30;;;13.80;99.90;;;;;;5113560;28;20470;-79
2022/09/20 13:16:29;;;;;;;0.70;0.40;;;13.80;99.90;;;;;;5113600;28;20288;-78
2022/09/20 13:19:03;;;;;;;0.40;0.30;;;13.90;99.90;;;;;;5113576;28;20422;-78
2022/09/20 13:21:31;;;;;;;0.40;0.30;;;13.90;99.90;;;;;;5113580;28;20458;-78
2022/09/20 13:24:00;;;;;;;0.70;0.40;;;14.00;99.90;;;;;;5113463;28;20463;-78
2022/09/20 13:26:32;;;;;;;0.50;0.40;;;14.20;99.90;;;;;;5113263;28;20455;-78
2022/09/20 13:29:00;;;;;;;0.40;0.30;;;14.30;99.90;;;;;;5113512;28;20435;-78
2022/09/20 13:31:29;;;;;;;0.45;0.30;;;14.40;99.90;;;;;;5113398;28;20447;-78
2022/09/20 13:34:13;;;;;;;0.40;0.40;;;14.50;99.90;;;;;;5113333;28;20223;-78
2022/09/20 13:36:39;;;;;;;0.40;0.30;;;14.60;99.90;;;;;;5113404;28;20523;-78
2022/09/20 13:39:07;;;;;;;0.40;0.30;;;14.50;99.90;;;;;;5113413;28;20450;-78
2022/09/20 13:41:36;;;;;;;0.40;0.40;;;14.60;99.90;;;;;;5113402;28;20427;-78
2022/09/20 13:44:03;;;;;;;0.40;0.30;;;14.60;99.90;;;;;;5113308;28;20557;-78
2022/09/20 13:46:32;;;;;;;0.47;0.43;;;14.70;99.90;;;;;;5113013;28;20443;-78
2022/09/20 13:49:13;;;;;;;0.40;0.40;;;14.70;99.90;;;;;;5113023;28;20447;-78
2022/09/20 13:51:40;;;;;;;0.70;0.50;;;14.80;99.90;;;;;;5113611;28;20510;-78
2022/09/20 13:54:24;;;;;;;0.37;0.30;;;14.80;99.90;;;;;;5113170;28;20826;-78